Date,TemperatureHighF,TemperatureAvgF,TemperatureLowF,DewpointHighF,DewpointAvgF,DewpointLowF,HumidityHigh,HumidityAvg,HumidityLow,PressureMaxIn,PressureMinIn,WindSpeedMaxMPH,WindSpeedAvgMPH,GustSpeedMaxMPH,PrecipitationSumIn
2013-2-1,31.0,24.4,17.6,12.0,8.2,4.0,59,51,38,30.07,29.53,12,3,21,0.00
2013-2-2,26.4,20.3,11.1,13.0,5.5,2.0,72,54,41,30.23,30.05,8,2,13,0.00
2013-2-3,26.9,22.4,15.1,18.0,15.6,12.0,88,76,61,30.06,29.71,2,0,6,0.00
2013-2-4,29.9,21.5,15.8,17.0,7.7,2.0,87,57,31,29.91,29.70,8,1,20,0.00
2013-2-5,30.0,18.2,6.3,13.0,6.7,3.0,87,63,39,30.04,29.91,5,0,8,0.00
2013-2-6,35.7,26.1,18.7,24.0,15.4,0.0,91,67,38,30.30,29.93,9,1,13,0.00
2013-2-7,27.6,18.3,9.6,1.0,-2.4,-4.0,62,41,28,30.55,30.31,5,1,13,0.00
2013-2-8,20.6,17.7,13.9,16.0,11.6,-3.0,90,79,36,30.51,29.79,8,1,11,0.00
2013-2-9,18.9,15.2,11.5,16.0,9.6,0.0,92,79,58,30.23,29.72,21,4,22,0.00
2013-2-10,38.5,20.1,8.5,8.0,1.7,-3.0,75,48,23,30.41,30.23,6,1,13,0.06
2013-2-11,31.9,22.7,12.3,31.0,18.9,5.0,96,85,60,30.35,29.64,3,0,4,0.00
2013-2-12,42.7,36.0,31.2,33.0,29.0,27.0,96,77,57,29.85,29.60,8,1,21,0.18
2013-2-13,43.0,32.4,25.3,27.0,22.5,20.0,82,68,45,29.86,29.73,5,1,10,0.01
2013-2-14,44.1,31.4,24.2,24.0,21.3,19.0,85,68,42,29.98,29.72,3,0,8,0.00
2013-2-15,52.4,34.3,19.4,30.0,24.5,17.0,91,70,40,29.99,29.89,6,1,17,0.00
2013-2-16,38.8,32.2,25.1,29.0,22.4,8.0,93,69,48,29.97,29.75,8,1,13,0.03
2013-2-17,24.9,18.0,12.7,13.0,5.0,0.0,86,58,45,29.76,29.41,16,5,31,0.00
2013-2-18,28.8,19.4,11.2,2.0,-1.3,-5.0,60,42,25,30.14,29.67,16,4,23,0.00
2013-2-19,40.6,30.4,15.2,36.0,17.8,0.0,95,62,35,30.18,29.58,6,1,10,0.12
2013-2-20,35.2,29.3,22.8,34.0,20.0,14.0,96,70,52,29.75,29.53,8,2,20,0.01
2013-2-21,29.6,23.1,19.3,15.0,11.8,7.0,76,63,49,30.22,29.75,13,3,20,0.00
2013-2-22,40.1,29.8,17.7,23.0,19.1,15.0,88,66,40,30.42,30.24,4,1,8,0.00
2013-2-23,34.4,31.4,29.1,31.0,27.3,23.0,95,85,74,30.34,29.96,5,1,9,0.00
2013-2-24,33.5,31.8,30.0,32.0,30.5,29.0,96,94,92,29.96,29.75,0,0,2,0.00
2013-2-25,41.1,32.0,25.9,35.0,30.0,24.0,96,92,78,30.23,29.90,3,0,4,0.20
2013-2-26,41.4,33.6,29.7,34.0,30.3,28.0,96,88,66,30.35,30.20,4,0,8,0.44
2013-2-27,37.4,33.2,31.5,36.0,31.5,28.0,96,93,84,30.20,29.63,9,1,13,0.55
2013-2-28,43.4,35.5,30.9,37.0,32.8,30.0,95,90,75,29.64,29.55,3,0,5,0.43